sensor_id;sensor_type;location;lat;lon;timestamp;P1;durP1;ratioP1;P2;durP2;ratioP2
65130;SDS011;51709;54.912;8.316;2023-12-07T00:01:03;31.40;;;17.02;;
65130;SDS011;51709;54.912;8.316;2023-12-07T00:06:24;38.85;;;19.00;;
65130;SDS011;51709;54.912;8.316;2023-12-07T00:11:44;32.28;;;17.15;;
65130;SDS011;51709;54.912;8.316;2023-12-07T00:17:05;34.40;;;18.20;;
65130;SDS011;51709;54.912;8.316;2023-12-07T00:22:25;42.33;;;20.20;;
65130;SDS011;51709;54.912;8.316;2023-12-07T00:27:49;40.90;;;18.83;;
65130;SDS011;51709;54.912;8.316;2023-12-07T00:33:09;45.65;;;19.35;;
65130;SDS011;51709;54.912;8.316;2023-12-07T00:38:30;38.92;;;19.17;;
65130;SDS011;51709;54.912;8.316;2023-12-07T00:43:52;36.90;;;17.10;;
65130;SDS011;51709;54.912;8.316;2023-12-07T00:49:13;38.53;;;18.60;;
65130;SDS011;51709;54.912;8.316;2023-12-07T00:54:34;35.88;;;17.50;;
65130;SDS011;51709;54.912;8.316;2023-12-07T00:59:55;37.58;;;18.85;;
65130;SDS011;51709;54.912;8.316;2023-12-07T01:05:16;37.95;;;18.35;;
65130;SDS011;51709;54.912;8.316;2023-12-07T01:10:36;35.92;;;17.52;;
65130;SDS011;51709;54.912;8.316;2023-12-07T01:15:57;44.90;;;21.23;;
65130;SDS011;51709;54.912;8.316;2023-12-07T01:21:18;42.97;;;21.13;;
65130;SDS011;51709;54.912;8.316;2023-12-07T01:26:38;38.40;;;19.48;;
65130;SDS011;51709;54.912;8.316;2023-12-07T01:31:58;38.72;;;18.42;;
65130;SDS011;51709;54.912;8.316;2023-12-07T01:37:19;33.20;;;17.63;;
65130;SDS011;51709;54.912;8.316;2023-12-07T01:42:40;42.20;;;19.40;;
65130;SDS011;51709;54.912;8.316;2023-12-07T01:48:09;43.45;;;18.98;;
65130;SDS011;51709;54.912;8.316;2023-12-07T01:53:29;36.20;;;17.40;;
65130;SDS011;51709;54.912;8.316;2023-12-07T01:58:50;42.13;;;19.65;;
65130;SDS011;51709;54.912;8.316;2023-12-07T02:04:11;46.83;;;20.88;;
65130;SDS011;51709;54.912;8.316;2023-12-07T02:09:33;36.03;;;19.15;;
65130;SDS011;51709;54.912;8.316;2023-12-07T02:14:53;36.42;;;18.20;;
65130;SDS011;51709;54.912;8.316;2023-12-07T02:20:20;45.78;;;18.23;;
65130;SDS011;51709;54.912;8.316;2023-12-07T02:25:48;39.97;;;18.42;;
65130;SDS011;51709;54.912;8.316;2023-12-07T02:31:12;42.90;;;18.55;;
65130;SDS011;51709;54.912;8.316;2023-12-07T02:36:32;43.00;;;19.60;;
65130;SDS011;51709;54.912;8.316;2023-12-07T02:41:56;40.97;;;19.17;;
65130;SDS011;51709;54.912;8.316;2023-12-07T02:47:18;41.00;;;18.92;;
65130;SDS011;51709;54.912;8.316;2023-12-07T02:52:38;36.20;;;17.63;;
65130;SDS011;51709;54.912;8.316;2023-12-07T02:58:00;44.70;;;19.15;;
65130;SDS011;51709;54.912;8.316;2023-12-07T03:03:20;34.60;;;18.02;;
65130;SDS011;51709;54.912;8.316;2023-12-07T03:08:41;37.92;;;16.98;;
65130;SDS011;51709;54.912;8.316;2023-12-07T03:14:02;39.92;;;18.73;;
65130;SDS011;51709;54.912;8.316;2023-12-07T03:19:22;39.92;;;18.80;;
65130;SDS011;51709;54.912;8.316;2023-12-07T03:24:46;53.42;;;19.83;;
65130;SDS011;51709;54.912;8.316;2023-12-07T03:30:10;45.53;;;20.20;;
65130;SDS011;51709;54.912;8.316;2023-12-07T03:35:32;48.28;;;19.42;;
65130;SDS011;51709;54.912;8.316;2023-12-07T03:40:53;41.63;;;18.13;;
65130;SDS011;51709;54.912;8.316;2023-12-07T03:46:14;43.72;;;18.23;;
65130;SDS011;51709;54.912;8.316;2023-12-07T03:51:34;37.47;;;18.17;;
65130;SDS011;51709;54.912;8.316;2023-12-07T03:56:56;39.72;;;18.27;;
65130;SDS011;51709;54.912;8.316;2023-12-07T04:02:17;35.30;;;17.08;;
65130;SDS011;51709;54.912;8.316;2023-12-07T04:07:38;42.40;;;19.00;;
65130;SDS011;51709;54.912;8.316;2023-12-07T04:12:59;40.60;;;18.63;;
65130;SDS011;51709;54.912;8.316;2023-12-07T04:18:19;35.33;;;17.40;;
65130;SDS011;51709;54.912;8.316;2023-12-07T04:23:40;38.90;;;18.60;;
65130;SDS011;51709;54.912;8.316;2023-12-07T04:29:01;40.78;;;19.67;;
65130;SDS011;51709;54.912;8.316;2023-12-07T04:34:21;40.13;;;18.55;;
65130;SDS011;51709;54.912;8.316;2023-12-07T04:39:42;38.92;;;18.85;;
65130;SDS011;51709;54.912;8.316;2023-12-07T04:45:02;42.05;;;18.77;;
65130;SDS011;51709;54.912;8.316;2023-12-07T04:50:23;39.67;;;20.60;;
65130;SDS011;51709;54.912;8.316;2023-12-07T04:55:43;41.17;;;18.75;;
65130;SDS011;51709;54.912;8.316;2023-12-07T05:01:08;42.70;;;19.10;;
65130;SDS011;51709;54.912;8.316;2023-12-07T05:06:29;45.65;;;20.08;;
65130;SDS011;51709;54.912;8.316;2023-12-07T05:11:55;40.30;;;17.40;;
65130;SDS011;51709;54.912;8.316;2023-12-07T05:17:16;38.50;;;18.27;;
65130;SDS011;51709;54.912;8.316;2023-12-07T05:22:36;43.17;;;17.95;;
65130;SDS011;51709;54.912;8.316;2023-12-07T05:27:57;43.22;;;19.65;;
65130;SDS011;51709;54.912;8.316;2023-12-07T05:33:18;36.95;;;17.58;;
65130;SDS011;51709;54.912;8.316;2023-12-07T05:38:39;34.33;;;18.15;;
65130;SDS011;51709;54.912;8.316;2023-12-07T05:44:00;37.80;;;19.10;;
65130;SDS011;51709;54.912;8.316;2023-12-07T05:49:21;33.38;;;17.17;;
65130;SDS011;51709;54.912;8.316;2023-12-07T05:54:42;36.97;;;18.85;;
65130;SDS011;51709;54.912;8.316;2023-12-07T06:00:04;42.50;;;19.42;;
65130;SDS011;51709;54.912;8.316;2023-12-07T06:05:32;36.28;;;18.25;;
65130;SDS011;51709;54.912;8.316;2023-12-07T06:10:53;40.53;;;18.98;;
65130;SDS011;51709;54.912;8.316;2023-12-07T06:16:13;43.05;;;18.50;;
65130;SDS011;51709;54.912;8.316;2023-12-07T06:21:35;41.35;;;19.20;;
65130;SDS011;51709;54.912;8.316;2023-12-07T06:26:55;38.08;;;18.52;;
65130;SDS011;51709;54.912;8.316;2023-12-07T06:32:16;38.97;;;19.17;;
65130;SDS011;51709;54.912;8.316;2023-12-07T06:37:36;35.08;;;17.65;;
65130;SDS011;51709;54.912;8.316;2023-12-07T06:42:57;43.90;;;19.30;;
65130;SDS011;51709;54.912;8.316;2023-12-07T06:48:17;38.05;;;18.77;;
65130;SDS011;51709;54.912;8.316;2023-12-07T06:53:38;34.17;;;18.85;;
65130;SDS011;51709;54.912;8.316;2023-12-07T06:59:00;38.63;;;19.52;;
65130;SDS011;51709;54.912;8.316;2023-12-07T07:04:21;35.03;;;18.88;;
65130;SDS011;51709;54.912;8.316;2023-12-07T07:09:42;43.40;;;20.38;;
65130;SDS011;51709;54.912;8.316;2023-12-07T07:15:02;34.70;;;18.08;;
65130;SDS011;51709;54.912;8.316;2023-12-07T07:20:23;34.53;;;16.92;;
65130;SDS011;51709;54.912;8.316;2023-12-07T07:25:44;45.58;;;19.75;;
65130;SDS011;51709;54.912;8.316;2023-12-07T07:31:04;43.03;;;21.40;;
65130;SDS011;51709;54.912;8.316;2023-12-07T07:36:25;50.42;;;19.67;;
65130;SDS011;51709;54.912;8.316;2023-12-07T07:41:45;43.55;;;21.05;;
65130;SDS011;51709;54.912;8.316;2023-12-07T07:47:05;40.42;;;19.90;;
65130;SDS011;51709;54.912;8.316;2023-12-07T07:52:26;41.28;;;21.20;;
65130;SDS011;51709;54.912;8.316;2023-12-07T07:57:46;38.45;;;19.65;;
65130;SDS011;51709;54.912;8.316;2023-12-07T08:03:06;51.47;;;21.85;;
65130;SDS011;51709;54.912;8.316;2023-12-07T08:08:27;48.13;;;20.45;;
65130;SDS011;51709;54.912;8.316;2023-12-07T08:13:48;45.28;;;21.02;;
65130;SDS011;51709;54.912;8.316;2023-12-07T08:19:10;46.63;;;21.08;;
65130;SDS011;51709;54.912;8.316;2023-12-07T08:24:31;49.65;;;21.63;;
65130;SDS011;51709;54.912;8.316;2023-12-07T08:29:51;55.53;;;21.30;;
65130;SDS011;51709;54.912;8.316;2023-12-07T08:35:12;48.58;;;20.73;;
65130;SDS011;51709;54.912;8.316;2023-12-07T08:40:33;48.88;;;22.02;;
65130;SDS011;51709;54.912;8.316;2023-12-07T08:45:54;44.97;;;21.17;;
65130;SDS011;51709;54.912;8.316;2023-12-07T08:51:21;45.20;;;20.33;;
65130;SDS011;51709;54.912;8.316;2023-12-07T08:56:43;51.58;;;22.45;;
65130;SDS011;51709;54.912;8.316;2023-12-07T09:02:05;39.88;;;21.27;;
65130;SDS011;51709;54.912;8.316;2023-12-07T09:07:25;45.03;;;21.27;;
65130;SDS011;51709;54.912;8.316;2023-12-07T09:12:46;38.92;;;19.05;;
65130;SDS011;51709;54.912;8.316;2023-12-07T09:18:07;48.17;;;21.65;;
65130;SDS011;51709;54.912;8.316;2023-12-07T09:23:27;46.55;;;19.70;;
65130;SDS011;51709;54.912;8.316;2023-12-07T09:28:48;48.95;;;20.85;;
65130;SDS011;51709;54.912;8.316;2023-12-07T09:34:08;42.05;;;20.70;;
65130;SDS011;51709;54.912;8.316;2023-12-07T09:39:32;47.42;;;20.80;;
65130;SDS011;51709;54.912;8.316;2023-12-07T09:44:54;42.65;;;20.42;;
65130;SDS011;51709;54.912;8.316;2023-12-07T09:50:15;51.72;;;21.45;;
65130;SDS011;51709;54.912;8.316;2023-12-07T09:55:43;57.38;;;27.35;;
65130;SDS011;51709;54.912;8.316;2023-12-07T10:01:03;56.90;;;23.83;;
65130;SDS011;51709;54.912;8.316;2023-12-07T10:06:25;55.05;;;21.95;;
65130;SDS011;51709;54.912;8.316;2023-12-07T10:11:46;46.97;;;20.98;;
65130;SDS011;51709;54.912;8.316;2023-12-07T10:17:07;58.25;;;25.73;;
65130;SDS011;51709;54.912;8.316;2023-12-07T10:22:27;50.47;;;22.08;;
65130;SDS011;51709;54.912;8.316;2023-12-07T10:27:48;52.45;;;21.80;;
65130;SDS011;51709;54.912;8.316;2023-12-07T10:33:09;47.83;;;21.70;;
65130;SDS011;51709;54.912;8.316;2023-12-07T10:38:30;49.63;;;23.35;;
65130;SDS011;51709;54.912;8.316;2023-12-07T10:43:53;47.95;;;20.92;;
65130;SDS011;51709;54.912;8.316;2023-12-07T10:49:19;46.13;;;20.23;;
65130;SDS011;51709;54.912;8.316;2023-12-07T10:55:01;55.42;;;19.98;;
65130;SDS011;51709;54.912;8.316;2023-12-07T11:00:23;44.97;;;21.70;;
65130;SDS011;51709;54.912;8.316;2023-12-07T11:06:00;43.80;;;20.10;;
65130;SDS011;51709;54.912;8.316;2023-12-07T11:16:46;53.05;;;20.90;;
65130;SDS011;51709;54.912;8.316;2023-12-07T11:22:07;48.53;;;21.90;;
65130;SDS011;51709;54.912;8.316;2023-12-07T11:27:29;48.08;;;21.52;;
65130;SDS011;51709;54.912;8.316;2023-12-07T11:32:52;49.90;;;23.65;;
65130;SDS011;51709;54.912;8.316;2023-12-07T11:38:13;50.33;;;23.83;;
65130;SDS011;51709;54.912;8.316;2023-12-07T11:48:58;47.80;;;22.40;;
65130;SDS011;51709;54.912;8.316;2023-12-07T11:54:19;52.47;;;22.88;;
65130;SDS011;51709;54.912;8.316;2023-12-07T11:59:40;48.15;;;24.23;;
65130;SDS011;51709;54.912;8.316;2023-12-07T12:05:01;55.05;;;22.33;;
65130;SDS011;51709;54.912;8.316;2023-12-07T12:10:22;47.28;;;21.80;;
65130;SDS011;51709;54.912;8.316;2023-12-07T12:15:45;54.60;;;24.07;;
65130;SDS011;51709;54.912;8.316;2023-12-07T12:21:09;40.90;;;21.20;;
65130;SDS011;51709;54.912;8.316;2023-12-07T12:26:30;44.65;;;22.65;;
65130;SDS011;51709;54.912;8.316;2023-12-07T12:31:53;48.55;;;22.48;;
65130;SDS011;51709;54.912;8.316;2023-12-07T12:37:13;46.72;;;23.63;;
65130;SDS011;51709;54.912;8.316;2023-12-07T12:42:34;47.45;;;22.42;;
65130;SDS011;51709;54.912;8.316;2023-12-07T12:47:57;51.00;;;24.20;;
65130;SDS011;51709;54.912;8.316;2023-12-07T12:53:20;52.00;;;21.90;;
65130;SDS011;51709;54.912;8.316;2023-12-07T12:58:41;51.15;;;22.35;;
65130;SDS011;51709;54.912;8.316;2023-12-07T13:04:01;47.38;;;21.25;;
65130;SDS011;51709;54.912;8.316;2023-12-07T13:09:22;46.45;;;21.52;;
65130;SDS011;51709;54.912;8.316;2023-12-07T13:14:42;51.95;;;22.33;;
65130;SDS011;51709;54.912;8.316;2023-12-07T13:20:09;45.95;;;20.42;;
65130;SDS011;51709;54.912;8.316;2023-12-07T13:25:30;53.75;;;21.45;;
65130;SDS011;51709;54.912;8.316;2023-12-07T13:30:51;53.22;;;23.50;;
65130;SDS011;51709;54.912;8.316;2023-12-07T13:36:13;49.38;;;22.75;;
65130;SDS011;51709;54.912;8.316;2023-12-07T13:41:34;54.33;;;23.02;;
65130;SDS011;51709;54.912;8.316;2023-12-07T13:46:55;48.22;;;22.30;;
65130;SDS011;51709;54.912;8.316;2023-12-07T13:52:17;61.58;;;24.60;;
65130;SDS011;51709;54.912;8.316;2023-12-07T13:57:38;57.78;;;24.95;;
65130;SDS011;51709;54.912;8.316;2023-12-07T14:02:59;58.40;;;25.10;;
65130;SDS011;51709;54.912;8.316;2023-12-07T14:08:19;55.40;;;24.98;;
65130;SDS011;51709;54.912;8.316;2023-12-07T14:13:40;88.07;;;38.08;;
65130;SDS011;51709;54.912;8.316;2023-12-07T14:19:00;47.22;;;22.17;;
65130;SDS011;51709;54.912;8.316;2023-12-07T14:24:37;57.35;;;24.63;;
65130;SDS011;51709;54.912;8.316;2023-12-07T14:29:58;56.85;;;24.75;;
65130;SDS011;51709;54.912;8.316;2023-12-07T14:35:19;52.72;;;24.85;;
65130;SDS011;51709;54.912;8.316;2023-12-07T14:40:40;47.47;;;22.98;;
65130;SDS011;51709;54.912;8.316;2023-12-07T14:46:00;47.83;;;23.10;;
65130;SDS011;51709;54.912;8.316;2023-12-07T14:51:22;47.25;;;20.55;;
65130;SDS011;51709;54.912;8.316;2023-12-07T14:56:43;46.47;;;22.55;;
65130;SDS011;51709;54.912;8.316;2023-12-07T15:02:07;54.83;;;23.77;;
65130;SDS011;51709;54.912;8.316;2023-12-07T15:07:27;42.95;;;20.70;;
65130;SDS011;51709;54.912;8.316;2023-12-07T15:12:49;41.85;;;21.33;;
65130;SDS011;51709;54.912;8.316;2023-12-07T15:18:09;39.05;;;20.50;;
65130;SDS011;51709;54.912;8.316;2023-12-07T15:23:30;52.13;;;24.20;;
65130;SDS011;51709;54.912;8.316;2023-12-07T15:28:51;46.47;;;20.98;;
65130;SDS011;51709;54.912;8.316;2023-12-07T15:34:12;43.53;;;23.48;;
65130;SDS011;51709;54.912;8.316;2023-12-07T15:39:48;49.20;;;23.63;;
65130;SDS011;51709;54.912;8.316;2023-12-07T15:45:09;46.42;;;22.75;;
65130;SDS011;51709;54.912;8.316;2023-12-07T15:50:30;49.85;;;25.00;;
65130;SDS011;51709;54.912;8.316;2023-12-07T15:55:51;50.38;;;23.25;;
65130;SDS011;51709;54.912;8.316;2023-12-07T16:01:12;52.17;;;25.17;;
65130;SDS011;51709;54.912;8.316;2023-12-07T16:06:32;53.20;;;23.58;;
65130;SDS011;51709;54.912;8.316;2023-12-07T16:11:53;58.17;;;25.40;;
65130;SDS011;51709;54.912;8.316;2023-12-07T16:17:13;51.72;;;26.15;;
65130;SDS011;51709;54.912;8.316;2023-12-07T16:22:34;57.35;;;27.58;;
65130;SDS011;51709;54.912;8.316;2023-12-07T16:27:54;59.70;;;26.70;;
65130;SDS011;51709;54.912;8.316;2023-12-07T16:33:15;58.85;;;27.50;;
65130;SDS011;51709;54.912;8.316;2023-12-07T16:38:38;63.22;;;29.35;;
65130;SDS011;51709;54.912;8.316;2023-12-07T16:44:00;66.15;;;26.50;;
65130;SDS011;51709;54.912;8.316;2023-12-07T16:49:21;62.25;;;28.52;;
65130;SDS011;51709;54.912;8.316;2023-12-07T16:54:42;60.83;;;26.33;;
65130;SDS011;51709;54.912;8.316;2023-12-07T17:00:03;59.47;;;26.90;;
65130;SDS011;51709;54.912;8.316;2023-12-07T17:05:26;63.08;;;27.25;;
65130;SDS011;51709;54.912;8.316;2023-12-07T17:10:47;61.75;;;26.70;;
65130;SDS011;51709;54.912;8.316;2023-12-07T17:16:08;60.55;;;27.75;;
65130;SDS011;51709;54.912;8.316;2023-12-07T17:21:30;54.75;;;26.80;;
65130;SDS011;51709;54.912;8.316;2023-12-07T17:26:51;59.85;;;26.58;;
65130;SDS011;51709;54.912;8.316;2023-12-07T17:32:14;53.33;;;26.05;;
65130;SDS011;51709;54.912;8.316;2023-12-07T17:37:35;52.75;;;25.38;;
65130;SDS011;51709;54.912;8.316;2023-12-07T17:42:55;56.95;;;26.25;;
65130;SDS011;51709;54.912;8.316;2023-12-07T17:48:16;52.58;;;24.77;;
65130;SDS011;51709;54.912;8.316;2023-12-07T17:53:37;56.30;;;26.15;;
65130;SDS011;51709;54.912;8.316;2023-12-07T17:58:58;55.53;;;25.05;;
65130;SDS011;51709;54.912;8.316;2023-12-07T18:04:19;58.25;;;27.05;;
65130;SDS011;51709;54.912;8.316;2023-12-07T18:09:40;60.72;;;26.52;;
65130;SDS011;51709;54.912;8.316;2023-12-07T18:15:02;48.78;;;24.05;;
65130;SDS011;51709;54.912;8.316;2023-12-07T18:20:25;54.45;;;23.55;;
65130;SDS011;51709;54.912;8.316;2023-12-07T18:25:46;36.78;;;20.55;;
65130;SDS011;51709;54.912;8.316;2023-12-07T18:31:07;38.75;;;18.15;;
65130;SDS011;51709;54.912;8.316;2023-12-07T18:36:27;36.03;;;19.90;;
65130;SDS011;51709;54.912;8.316;2023-12-07T18:41:48;40.63;;;20.38;;
65130;SDS011;51709;54.912;8.316;2023-12-07T18:47:09;42.28;;;20.45;;
65130;SDS011;51709;54.912;8.316;2023-12-07T18:52:30;38.75;;;20.15;;
65130;SDS011;51709;54.912;8.316;2023-12-07T18:57:51;37.47;;;18.67;;
65130;SDS011;51709;54.912;8.316;2023-12-07T19:03:13;38.63;;;20.08;;
65130;SDS011;51709;54.912;8.316;2023-12-07T19:08:33;49.13;;;22.90;;
65130;SDS011;51709;54.912;8.316;2023-12-07T19:13:54;40.50;;;20.15;;
65130;SDS011;51709;54.912;8.316;2023-12-07T19:19:14;47.88;;;21.80;;
65130;SDS011;51709;54.912;8.316;2023-12-07T19:24:35;45.13;;;23.52;;
65130;SDS011;51709;54.912;8.316;2023-12-07T19:29:55;54.17;;;25.38;;
65130;SDS011;51709;54.912;8.316;2023-12-07T19:35:17;46.28;;;22.02;;
65130;SDS011;51709;54.912;8.316;2023-12-07T19:40:38;51.85;;;23.40;;
65130;SDS011;51709;54.912;8.316;2023-12-07T19:45:59;50.50;;;24.77;;
65130;SDS011;51709;54.912;8.316;2023-12-07T19:51:20;52.65;;;24.48;;
65130;SDS011;51709;54.912;8.316;2023-12-07T19:56:40;53.92;;;23.63;;
65130;SDS011;51709;54.912;8.316;2023-12-07T20:02:01;45.47;;;22.48;;
65130;SDS011;51709;54.912;8.316;2023-12-07T20:07:21;47.75;;;20.67;;
65130;SDS011;51709;54.912;8.316;2023-12-07T20:12:42;49.97;;;22.20;;
65130;SDS011;51709;54.912;8.316;2023-12-07T20:18:04;38.60;;;20.67;;
65130;SDS011;51709;54.912;8.316;2023-12-07T20:23:25;41.05;;;19.98;;
65130;SDS011;51709;54.912;8.316;2023-12-07T20:28:47;41.20;;;19.02;;
65130;SDS011;51709;54.912;8.316;2023-12-07T20:34:09;47.63;;;21.10;;
65130;SDS011;51709;54.912;8.316;2023-12-07T20:39:31;43.08;;;20.13;;
65130;SDS011;51709;54.912;8.316;2023-12-07T20:44:51;39.30;;;19.45;;
65130;SDS011;51709;54.912;8.316;2023-12-07T20:50:12;39.35;;;19.77;;
65130;SDS011;51709;54.912;8.316;2023-12-07T20:55:33;39.83;;;20.05;;
65130;SDS011;51709;54.912;8.316;2023-12-07T21:00:54;30.30;;;16.05;;
65130;SDS011;51709;54.912;8.316;2023-12-07T21:06:15;35.35;;;20.08;;
65130;SDS011;51709;54.912;8.316;2023-12-07T21:11:46;33.85;;;18.33;;
65130;SDS011;51709;54.912;8.316;2023-12-07T21:17:07;43.55;;;19.67;;
65130;SDS011;51709;54.912;8.316;2023-12-07T21:22:27;37.33;;;20.27;;
65130;SDS011;51709;54.912;8.316;2023-12-07T21:27:48;34.67;;;17.92;;
65130;SDS011;51709;54.912;8.316;2023-12-07T21:33:09;38.28;;;19.33;;
65130;SDS011;51709;54.912;8.316;2023-12-07T21:38:29;36.70;;;18.98;;
65130;SDS011;51709;54.912;8.316;2023-12-07T21:43:50;37.35;;;19.05;;
65130;SDS011;51709;54.912;8.316;2023-12-07T21:49:10;36.85;;;19.83;;
65130;SDS011;51709;54.912;8.316;2023-12-07T21:54:31;43.03;;;19.67;;
65130;SDS011;51709;54.912;8.316;2023-12-07T21:59:51;43.03;;;19.48;;
65130;SDS011;51709;54.912;8.316;2023-12-07T22:05:14;35.75;;;16.15;;
65130;SDS011;51709;54.912;8.316;2023-12-07T22:10:34;35.63;;;15.80;;
65130;SDS011;51709;54.912;8.316;2023-12-07T22:15:55;41.55;;;18.30;;
65130;SDS011;51709;54.912;8.316;2023-12-07T22:21:16;43.72;;;17.70;;
65130;SDS011;51709;54.912;8.316;2023-12-07T22:26:36;51.17;;;17.63;;
65130;SDS011;51709;54.912;8.316;2023-12-07T22:31:58;40.15;;;16.15;;
65130;SDS011;51709;54.912;8.316;2023-12-07T22:37:19;43.08;;;17.63;;
65130;SDS011;51709;54.912;8.316;2023-12-07T22:42:39;44.83;;;17.77;;
65130;SDS011;51709;54.912;8.316;2023-12-07T22:47:59;42.72;;;18.35;;
65130;SDS011;51709;54.912;8.316;2023-12-07T22:53:21;37.38;;;17.10;;
65130;SDS011;51709;54.912;8.316;2023-12-07T22:58:41;46.83;;;17.23;;
65130;SDS011;51709;54.912;8.316;2023-12-07T23:04:01;52.30;;;17.35;;
65130;SDS011;51709;54.912;8.316;2023-12-07T23:09:22;43.25;;;17.20;;
65130;SDS011;51709;54.912;8.316;2023-12-07T23:14:43;38.40;;;17.77;;
65130;SDS011;51709;54.912;8.316;2023-12-07T23:20:04;37.38;;;17.40;;
65130;SDS011;51709;54.912;8.316;2023-12-07T23:25:25;50.00;;;21.02;;
65130;SDS011;51709;54.912;8.316;2023-12-07T23:30:45;41.63;;;18.48;;
65130;SDS011;51709;54.912;8.316;2023-12-07T23:36:06;47.80;;;19.40;;
65130;SDS011;51709;54.912;8.316;2023-12-07T23:41:27;44.60;;;17.98;;
65130;SDS011;51709;54.912;8.316;2023-12-07T23:46:48;39.45;;;16.45;;
65130;SDS011;51709;54.912;8.316;2023-12-07T23:52:09;38.42;;;16.58;;
65130;SDS011;51709;54.912;8.316;2023-12-07T23:57:30;38.90;;;16.33;;
